createdAt,value
2019-04-05T00:00:57.557Z,5.30
2019-04-05T00:03:24.957Z,5.30
2019-04-05T00:05:52.683Z,5.30
2019-04-05T00:08:20.293Z,5.30
2019-04-05T00:10:47.579Z,5.30
2019-04-05T00:13:15.000Z,5.30
2019-04-05T00:15:42.459Z,5.30
2019-04-05T00:18:09.891Z,5.30
2019-04-05T00:20:37.260Z,5.20
2019-04-05T00:23:04.499Z,5.20
2019-04-05T00:25:32.174Z,5.20
2019-04-05T00:27:59.551Z,5.20
2019-04-05T00:30:26.884Z,5.30
2019-04-05T00:32:54.457Z,5.30
2019-04-05T00:35:21.914Z,5.30
2019-04-05T00:37:49.604Z,5.30
2019-04-05T00:40:16.940Z,5.30
2019-04-05T00:42:44.376Z,5.30
2019-04-05T00:45:11.924Z,5.20
2019-04-05T00:47:39.210Z,5.30
2019-04-05T00:50:07.909Z,5.20
2019-04-05T00:52:35.267Z,5.20
2019-04-05T00:55:03.017Z,5.20
2019-04-05T00:57:31.404Z,5.20
2019-04-05T00:59:58.616Z,5.20
2019-04-05T01:02:25.974Z,5.20
2019-04-05T01:04:53.446Z,5.20
2019-04-05T01:07:20.850Z,5.20
2019-04-05T01:09:48.252Z,5.20
2019-04-05T01:12:16.827Z,5.20
2019-04-05T01:14:45.008Z,5.20
2019-04-05T01:17:24.196Z,5.20
2019-04-05T01:19:44.790Z,5.10
2019-04-05T01:22:13.860Z,5.10
2019-04-05T01:24:41.380Z,5.20
2019-04-05T01:27:08.798Z,5.20
2019-04-05T01:29:36.083Z,5.20
2019-04-05T01:32:03.471Z,5.10
2019-04-05T01:34:30.838Z,5.10
2019-04-05T01:36:58.257Z,5.20
2019-04-05T01:39:25.631Z,5.10
2019-04-05T01:41:52.968Z,5.20
2019-04-05T01:44:20.322Z,5.20
2019-04-05T01:46:47.945Z,5.10
2019-04-05T01:49:15.313Z,5.20
2019-04-05T01:51:42.756Z,5.20
2019-04-05T01:54:10.239Z,5.20
2019-04-05T01:56:37.587Z,5.20
2019-04-05T01:59:04.957Z,5.20
2019-04-05T02:01:32.316Z,5.10
2019-04-05T02:04:00.046Z,5.10
2019-04-05T02:06:27.340Z,5.10
2019-04-05T02:08:54.590Z,5.20
2019-04-05T02:11:22.319Z,5.20
2019-04-05T02:13:49.745Z,5.10
2019-04-05T02:16:17.150Z,5.20
2019-04-05T02:18:44.557Z,5.20
2019-04-05T02:21:11.924Z,5.20
2019-04-05T02:23:39.150Z,5.10
2019-04-05T02:26:06.540Z,5.10
2019-04-05T02:28:34.878Z,5.20
2019-04-05T02:31:02.308Z,5.20
2019-04-05T02:33:29.706Z,5.20
2019-04-05T02:35:57.416Z,5.10
2019-04-05T02:38:24.682Z,5.20
2019-04-05T02:40:52.603Z,5.20
2019-04-05T02:43:21.340Z,5.20
2019-04-05T02:45:49.447Z,5.20
2019-04-05T02:48:18.040Z,5.20
2019-04-05T02:50:49.722Z,5.20
2019-04-05T02:53:18.669Z,5.20
2019-04-05T02:55:47.043Z,5.20
2019-04-05T02:58:14.696Z,5.20
2019-04-05T03:00:43.032Z,5.20
2019-04-05T03:03:11.598Z,5.20
2019-04-05T03:05:39.582Z,5.20
2019-04-05T03:08:07.232Z,5.20
2019-04-05T03:11:07.905Z,5.20
2019-04-05T03:13:37.585Z,5.20
2019-04-05T03:16:09.894Z,5.20
2019-04-05T03:18:41.216Z,5.20
2019-04-05T03:21:10.715Z,5.20
2019-04-05T03:23:41.282Z,5.20
2019-04-05T03:26:12.504Z,5.20
2019-04-05T03:28:41.918Z,5.20
2019-04-05T03:31:10.371Z,5.20
2019-04-05T03:33:39.151Z,5.20
2019-04-05T03:36:07.302Z,5.20
2019-04-05T03:38:35.344Z,5.20
2019-04-05T03:41:03.094Z,5.20
2019-04-05T03:43:32.575Z,5.20
2019-04-05T03:46:00.257Z,5.20
2019-04-05T03:48:27.550Z,5.20
2019-04-05T03:50:55.147Z,5.20
2019-04-05T03:53:22.352Z,5.20
2019-04-05T03:55:49.852Z,5.20
2019-04-05T03:58:17.262Z,5.20
2019-04-05T04:00:44.628Z,5.20
2019-04-05T04:03:14.015Z,5.10
2019-04-05T04:05:41.382Z,5.10
2019-04-05T04:08:08.766Z,5.20
2019-04-05T04:10:36.115Z,5.20
2019-04-05T04:13:03.831Z,5.20
2019-04-05T04:15:32.442Z,5.20
2019-04-05T04:17:59.861Z,5.20
2019-04-05T04:20:43.651Z,5.20
2019-04-05T04:23:11.806Z,5.20
2019-04-05T04:25:39.776Z,5.20
2019-04-05T04:28:07.328Z,5.20
2019-04-05T04:30:35.722Z,5.20
2019-04-05T04:33:03.236Z,5.20
2019-04-05T04:35:30.859Z,5.20
2019-04-05T04:37:58.446Z,5.20
2019-04-05T04:40:25.708Z,5.20
2019-04-05T04:42:53.113Z,5.20
2019-04-05T04:45:20.343Z,5.20
2019-04-05T04:47:47.748Z,5.20
2019-04-05T04:50:15.388Z,5.20
2019-04-05T04:52:42.817Z,5.20
2019-04-05T04:55:10.519Z,5.20
2019-04-05T04:57:37.882Z,5.20
2019-04-05T05:00:05.625Z,5.20
2019-04-05T05:02:33.533Z,5.20
2019-04-05T05:05:01.344Z,5.30
2019-04-05T05:07:28.650Z,5.20
2019-04-05T05:09:56.270Z,5.20
2019-04-05T05:12:24.209Z,5.20
2019-04-05T05:14:51.694Z,5.20
2019-04-05T05:17:19.534Z,5.20
2019-04-05T05:19:47.146Z,5.20
2019-04-05T05:22:14.944Z,5.30
2019-04-05T05:24:42.289Z,5.30
2019-04-05T05:27:09.797Z,5.30
2019-04-05T05:29:37.442Z,5.30
2019-04-05T05:32:04.888Z,5.30
2019-04-05T05:34:33.297Z,5.30
2019-04-05T05:37:00.750Z,5.30
2019-04-05T05:39:28.379Z,5.30
2019-04-05T05:41:55.849Z,5.30
2019-04-05T05:44:23.373Z,5.30
2019-04-05T05:46:50.775Z,5.40
2019-04-05T05:49:18.216Z,5.40
2019-04-05T05:51:46.496Z,5.40
2019-04-05T05:54:13.822Z,5.30
2019-04-05T05:56:41.311Z,5.40
2019-04-05T05:59:10.101Z,5.40
2019-04-05T06:01:37.642Z,5.40
2019-04-05T06:04:05.067Z,5.40
2019-04-05T06:06:32.323Z,5.40
2019-04-05T06:08:59.733Z,5.40
2019-04-05T06:11:27.276Z,5.40
2019-04-05T06:13:54.914Z,5.40
2019-04-05T06:16:22.296Z,5.40
2019-04-05T06:18:49.775Z,5.50
2019-04-05T06:21:17.230Z,5.40
2019-04-05T06:23:44.620Z,5.40
2019-04-05T06:26:12.052Z,5.50
2019-04-05T06:28:39.556Z,5.50
2019-04-05T06:31:07.000Z,5.50
2019-04-05T06:33:35.816Z,5.50
2019-04-05T06:36:04.428Z,5.60
2019-04-05T06:38:32.486Z,5.60
2019-04-05T06:40:59.905Z,5.60
2019-04-05T06:43:27.380Z,5.60
2019-04-05T06:45:54.967Z,5.60
2019-04-05T06:48:22.492Z,5.60
2019-04-05T06:50:49.880Z,5.60
2019-04-05T06:53:17.347Z,5.60
2019-04-05T06:55:44.769Z,5.60
2019-04-05T06:58:19.621Z,5.70
2019-04-05T07:00:41.680Z,5.60
2019-04-05T07:03:09.151Z,5.70
2019-04-05T07:05:36.774Z,5.70
2019-04-05T07:08:04.425Z,5.70
2019-04-05T07:10:31.925Z,5.70
2019-04-05T07:12:59.798Z,5.70
2019-04-05T07:15:27.294Z,5.70
2019-04-05T07:17:54.893Z,5.70
2019-04-05T07:20:23.763Z,5.80
2019-04-05T07:22:51.459Z,5.80
2019-04-05T07:25:18.720Z,5.80
2019-04-05T07:27:46.110Z,5.80
2019-04-05T07:30:13.467Z,5.90
2019-04-05T07:32:40.859Z,5.80
2019-04-05T07:35:08.256Z,5.90
2019-04-05T07:37:35.707Z,6.00
2019-04-05T07:40:03.613Z,6.00
2019-04-05T07:42:31.110Z,6.00
2019-04-05T07:45:07.123Z,6.00
2019-04-05T07:47:34.833Z,6.10
2019-04-05T07:50:02.341Z,6.10
2019-04-05T07:52:29.824Z,6.10
2019-04-05T07:54:57.244Z,6.10
2019-04-05T07:57:25.109Z,6.10
2019-04-05T07:59:52.783Z,6.20
2019-04-05T08:02:20.330Z,6.30
2019-04-05T08:04:47.808Z,6.30
2019-04-05T08:07:17.071Z,6.30
2019-04-05T08:09:47.336Z,6.30
2019-04-05T08:12:14.761Z,6.40
2019-04-05T08:14:42.535Z,6.40
2019-04-05T08:17:09.928Z,6.40
2019-04-05T08:19:37.336Z,6.50
2019-04-05T08:22:04.807Z,6.50
2019-04-05T08:24:32.154Z,6.50
2019-04-05T08:26:59.473Z,6.50
2019-04-05T08:29:26.716Z,6.60
2019-04-05T08:31:54.165Z,6.60
2019-04-05T08:34:21.533Z,6.50
2019-04-05T08:36:49.830Z,6.50
2019-04-05T08:39:17.287Z,6.50
2019-04-05T08:41:44.736Z,6.60
2019-04-05T08:44:12.176Z,6.60
2019-04-05T08:46:39.714Z,6.60
2019-04-05T08:49:10.855Z,6.60
2019-04-05T08:51:36.358Z,6.70
2019-04-05T08:54:03.900Z,6.70
2019-04-05T08:56:31.646Z,6.80
2019-04-05T08:58:59.184Z,6.80
2019-04-05T09:01:26.499Z,6.80
2019-04-05T09:03:53.958Z,6.80
2019-04-05T09:06:21.499Z,6.90
2019-04-05T09:08:48.906Z,6.90
2019-04-05T09:11:16.377Z,7.00
2019-04-05T09:13:43.743Z,7.00
2019-04-05T09:16:11.869Z,7.10
2019-04-05T09:18:39.558Z,7.10
2019-04-05T09:21:09.996Z,7.20
2019-04-05T09:23:36.480Z,7.20
2019-04-05T09:26:04.415Z,7.30
2019-04-05T09:28:31.819Z,7.30
2019-04-05T09:30:59.258Z,7.40
2019-04-05T09:33:26.632Z,7.40
2019-04-05T09:35:54.150Z,7.40
2019-04-05T09:38:24.709Z,7.50
2019-04-05T09:40:52.279Z,7.50
2019-04-05T09:43:19.861Z,7.50
2019-04-05T09:45:47.262Z,7.50
2019-04-05T09:48:14.635Z,7.60
2019-04-05T09:50:42.052Z,7.60
2019-04-05T09:53:09.519Z,7.80
2019-04-05T09:55:36.944Z,7.80
2019-04-05T09:58:04.530Z,7.90
2019-04-05T10:00:32.935Z,8.00
2019-04-05T10:03:00.370Z,8.10
2019-04-05T10:05:27.796Z,8.10
2019-04-05T10:07:55.889Z,8.20
2019-04-05T10:10:23.451Z,8.30
2019-04-05T10:12:50.810Z,8.30
2019-04-05T10:15:18.218Z,8.40
2019-04-05T10:17:45.614Z,8.50
2019-04-05T10:20:13.564Z,8.60
2019-04-05T10:22:40.994Z,8.70
2019-04-05T10:25:08.678Z,8.70
2019-04-05T10:27:36.157Z,8.80
2019-04-05T10:30:05.900Z,8.90
2019-04-05T10:32:33.150Z,9.00
2019-04-05T10:35:00.590Z,9.00
2019-04-05T10:37:28.302Z,9.20
2019-04-05T10:39:55.584Z,9.20
2019-04-05T10:42:32.488Z,9.30
2019-04-05T10:45:00.058Z,9.30
2019-04-05T10:47:27.700Z,9.30
2019-04-05T10:50:03.072Z,9.20
2019-04-05T10:52:24.428Z,9.20
2019-04-05T10:54:51.914Z,9.30
2019-04-05T10:57:19.191Z,9.20
2019-04-05T10:59:46.851Z,9.20
2019-04-05T11:02:14.246Z,9.20
2019-04-05T11:04:41.782Z,9.20
2019-04-05T11:07:09.159Z,9.20
2019-04-05T11:09:40.023Z,9.20
2019-04-05T11:12:08.761Z,9.20
2019-04-05T11:14:36.474Z,9.30
2019-04-05T11:17:05.027Z,9.30
2019-04-05T11:19:36.199Z,9.40
2019-04-05T11:22:02.209Z,9.40
2019-04-05T11:24:29.654Z,9.30
2019-04-05T11:26:57.893Z,9.30
2019-04-05T11:29:25.299Z,9.30
2019-04-05T11:31:57.382Z,9.20
2019-04-05T11:34:22.121Z,9.20
2019-04-05T11:36:49.721Z,9.20
2019-04-05T11:39:17.211Z,9.20
2019-04-05T11:41:44.606Z,9.20
2019-04-05T11:44:12.480Z,9.20
2019-04-05T11:46:39.884Z,9.20
2019-04-05T11:49:07.412Z,9.20
2019-04-05T11:51:34.700Z,9.20
2019-04-05T11:54:02.143Z,9.20
2019-04-05T11:56:30.267Z,9.20
2019-04-05T11:58:57.879Z,9.20
2019-04-05T12:01:29.637Z,9.20
2019-04-05T12:03:57.004Z,9.10
2019-04-05T12:06:24.369Z,9.20
2019-04-05T12:09:02.883Z,9.30
2019-04-05T12:11:31.570Z,9.30
2019-04-05T12:13:59.890Z,9.30
2019-04-05T12:16:27.404Z,9.30
2019-04-05T12:18:54.764Z,9.20
2019-04-05T12:21:22.700Z,9.30
2019-04-05T12:23:50.644Z,9.30
2019-04-05T12:26:18.068Z,9.30
2019-04-05T12:28:45.573Z,9.20
2019-04-05T12:31:12.937Z,9.10
2019-04-05T12:33:40.194Z,9.10
2019-04-05T12:36:07.564Z,9.00
2019-04-05T12:38:35.017Z,9.00
2019-04-05T12:41:03.474Z,9.00
2019-04-05T12:43:31.971Z,9.00
2019-04-05T12:45:59.443Z,9.00
2019-04-05T12:48:26.837Z,8.90
2019-04-05T12:51:01.121Z,8.90
2019-04-05T12:53:24.702Z,8.90
2019-04-05T12:55:56.145Z,8.90
2019-04-05T12:58:25.490Z,8.90
2019-04-05T13:00:53.681Z,8.90
2019-04-05T13:03:21.220Z,8.80
2019-04-05T13:05:51.328Z,8.80
2019-04-05T13:08:18.271Z,8.80
2019-04-05T13:10:45.684Z,8.80
2019-04-05T13:13:13.206Z,8.90
2019-04-05T13:15:41.894Z,8.90
2019-04-05T13:18:09.250Z,8.90
2019-04-05T13:20:36.479Z,8.90
2019-04-05T13:23:06.583Z,8.90
2019-04-05T13:25:33.646Z,8.90
2019-04-05T13:28:12.746Z,8.90
2019-04-05T13:30:30.683Z,8.90
2019-04-05T13:32:58.087Z,8.80
2019-04-05T13:35:25.533Z,8.80
2019-04-05T13:37:52.813Z,8.80
2019-04-05T13:40:20.345Z,8.80
2019-04-05T13:42:48.245Z,8.80
2019-04-05T13:45:15.737Z,8.90
2019-04-05T13:47:43.094Z,8.90
2019-04-05T13:50:11.309Z,9.00
2019-04-05T13:52:42.071Z,9.00
2019-04-05T13:55:11.326Z,9.00
2019-04-05T13:57:40.955Z,8.90
2019-04-05T14:00:09.052Z,8.90
2019-04-05T14:02:36.475Z,8.90
2019-04-05T14:05:05.092Z,8.90
2019-04-05T14:07:34.208Z,8.90
2019-04-05T14:10:01.896Z,8.90
2019-04-05T14:12:31.299Z,8.90
2019-04-05T14:14:58.916Z,8.90
2019-04-05T14:17:26.300Z,9.00
2019-04-05T14:19:53.774Z,9.00
2019-04-05T14:22:22.541Z,9.10
2019-04-05T14:24:52.437Z,9.10
2019-04-05T14:27:20.061Z,9.00
2019-04-05T14:29:48.460Z,9.10
2019-04-05T14:32:21.241Z,9.10
2019-04-05T14:34:45.181Z,9.10
2019-04-05T14:37:12.633Z,9.10
2019-04-05T14:39:40.005Z,9.00
2019-04-05T14:42:10.054Z,9.00
2019-04-05T14:44:36.985Z,9.10
2019-04-05T14:47:04.283Z,9.00
2019-04-05T14:49:31.631Z,9.00
2019-04-05T14:52:01.220Z,9.00
2019-04-05T14:54:30.182Z,9.00
2019-04-05T14:57:02.448Z,9.00
2019-04-05T14:59:27.059Z,9.00
2019-04-05T15:01:55.504Z,9.00
2019-04-05T15:04:22.762Z,8.90
2019-04-05T15:06:50.603Z,9.00
2019-04-05T15:09:21.836Z,8.90
2019-04-05T15:11:48.091Z,8.90
2019-04-05T15:14:16.620Z,8.90
2019-04-05T15:16:44.056Z,8.90
2019-04-05T15:19:11.767Z,8.90
2019-04-05T15:21:39.467Z,8.80
2019-04-05T15:24:08.786Z,8.80
2019-04-05T15:26:36.392Z,8.80
2019-04-05T15:29:04.853Z,8.80
2019-04-05T15:31:32.210Z,8.80
2019-04-05T15:33:59.531Z,8.80
2019-04-05T15:36:27.078Z,8.70
2019-04-05T15:38:54.486Z,8.70
2019-04-05T15:41:22.076Z,8.70
2019-04-05T15:43:49.468Z,8.70
2019-04-05T15:46:16.913Z,8.70
2019-04-05T15:48:44.321Z,8.60
2019-04-05T15:51:11.690Z,8.70
2019-04-05T15:53:39.104Z,8.60
2019-04-05T15:56:06.561Z,8.60
2019-04-05T15:58:34.604Z,8.60
2019-04-05T16:01:04.466Z,8.60
2019-04-05T16:03:33.112Z,8.60
2019-04-05T16:06:00.813Z,8.60
2019-04-05T16:08:28.388Z,8.60
2019-04-05T16:10:56.168Z,8.60
2019-04-05T16:13:23.546Z,8.60
2019-04-05T16:15:51.057Z,8.60
2019-04-05T16:18:18.468Z,8.60
2019-04-05T16:20:45.930Z,8.60
2019-04-05T16:23:14.352Z,8.50
2019-04-05T16:25:44.155Z,8.50
2019-04-05T16:28:11.704Z,8.50
2019-04-05T16:30:39.859Z,8.50
2019-04-05T16:33:07.413Z,8.50
2019-04-05T16:35:34.905Z,8.50
2019-04-05T16:38:02.414Z,8.50
2019-04-05T16:40:31.407Z,8.40
2019-04-05T16:43:02.832Z,8.40
2019-04-05T16:45:28.401Z,8.40
2019-04-05T16:47:55.967Z,8.40
2019-04-05T16:50:23.409Z,8.40
2019-04-05T16:52:50.850Z,8.40
2019-04-05T16:55:18.343Z,8.40
2019-04-05T16:57:45.956Z,8.40
2019-04-05T17:00:14.104Z,8.40
2019-04-05T17:02:42.036Z,8.40
2019-04-05T17:05:11.005Z,8.40
2019-04-05T17:07:39.589Z,8.40
2019-04-05T17:10:07.547Z,8.40
2019-04-05T17:12:36.844Z,8.40
2019-04-05T17:15:05.235Z,8.40
2019-04-05T17:17:32.677Z,8.40
2019-04-05T17:20:00.122Z,8.40
2019-04-05T17:22:27.713Z,8.40
2019-04-05T17:24:55.130Z,8.40
2019-04-05T17:27:22.953Z,8.40
2019-04-05T17:29:51.502Z,8.30
2019-04-05T17:32:19.107Z,8.30
2019-04-05T17:34:46.880Z,8.30
2019-04-05T17:37:14.292Z,8.30
2019-04-05T17:39:42.738Z,8.30
2019-04-05T17:42:10.125Z,8.30
2019-04-05T17:44:37.616Z,8.30
2019-04-05T17:47:04.974Z,8.30
2019-04-05T17:49:32.479Z,8.30
2019-04-05T17:52:00.154Z,8.30
2019-04-05T17:54:27.567Z,8.30
2019-04-05T17:56:55.042Z,8.30
2019-04-05T17:59:22.496Z,8.20
2019-04-05T18:01:50.183Z,8.20
2019-04-05T18:04:17.451Z,8.30
2019-04-05T18:06:44.919Z,8.30
2019-04-05T18:09:12.481Z,8.20
2019-04-05T18:11:40.037Z,8.20
2019-04-05T18:14:07.459Z,8.20
2019-04-05T18:16:34.991Z,8.20
2019-04-05T18:19:02.388Z,8.20
2019-04-05T18:21:29.916Z,8.20
2019-04-05T18:23:57.354Z,8.20
2019-04-05T18:26:24.947Z,8.20
2019-04-05T18:28:52.392Z,8.20
2019-04-05T18:31:19.777Z,8.20
2019-04-05T18:33:47.276Z,8.20
2019-04-05T18:36:15.670Z,8.20
2019-04-05T18:38:43.181Z,8.20
2019-04-05T18:41:10.963Z,8.20
2019-04-05T18:43:38.425Z,8.20
2019-04-05T18:46:05.849Z,8.20
2019-04-05T18:48:33.193Z,8.10
2019-04-05T18:51:00.646Z,8.20
2019-04-05T18:53:37.448Z,8.20
2019-04-05T18:55:57.930Z,8.20
2019-04-05T18:58:25.480Z,8.20
2019-04-05T19:00:52.967Z,8.20
2019-04-05T19:03:20.414Z,8.20
2019-04-05T19:05:47.877Z,8.20
2019-04-05T19:08:19.340Z,8.20
2019-04-05T19:10:46.995Z,8.10
2019-04-05T19:13:14.439Z,8.10
2019-04-05T19:15:41.898Z,8.10
2019-04-05T19:18:09.335Z,8.10
2019-04-05T19:20:36.970Z,8.10
2019-04-05T19:23:04.838Z,8.10
2019-04-05T19:25:32.441Z,8.20
2019-04-05T19:28:00.582Z,8.10
2019-04-05T19:50:30.238Z,8.10
2019-04-05T19:52:58.025Z,8.10
2019-04-05T19:55:25.712Z,8.10
2019-04-05T19:57:53.099Z,8.00
2019-04-05T20:00:20.586Z,8.10
2019-04-05T20:02:48.100Z,8.00
2019-04-05T20:05:16.777Z,8.00
2019-04-05T20:07:44.222Z,8.00
2019-04-05T20:10:11.816Z,8.10
2019-04-05T20:12:39.640Z,8.10
2019-04-05T20:15:07.704Z,8.00
2019-04-05T20:17:35.989Z,8.00
2019-04-05T20:20:55.890Z,8.00
2019-04-05T20:23:23.326Z,8.00
2019-04-05T20:25:50.756Z,8.00
2019-04-05T20:28:18.142Z,8.00
2019-04-05T20:30:45.782Z,8.00
2019-04-05T20:33:13.339Z,8.00
2019-04-05T20:35:40.793Z,8.00
2019-04-05T20:38:16.190Z,8.00
2019-04-05T20:40:43.574Z,8.00
2019-04-05T20:43:11.166Z,8.00
2019-04-05T20:45:41.422Z,8.00
2019-04-05T20:48:08.702Z,8.00
2019-04-05T20:50:45.784Z,8.00
2019-04-05T20:53:13.137Z,8.00
2019-04-05T20:55:40.566Z,8.00
2019-04-05T20:58:22.523Z,8.00
2019-04-05T21:00:50.128Z,8.00
2019-04-05T21:03:17.582Z,8.00
2019-04-05T21:05:46.814Z,8.00
2019-04-05T21:08:16.552Z,8.00
2019-04-05T21:10:45.840Z,8.00
2019-04-05T21:13:13.254Z,8.00
2019-04-05T21:15:40.582Z,8.00
2019-04-05T21:18:08.618Z,8.00
2019-04-05T21:20:38.538Z,8.00
2019-04-05T21:23:06.087Z,8.00
2019-04-05T21:25:33.516Z,8.00
2019-04-05T21:28:01.931Z,8.00
2019-04-05T21:30:44.189Z,8.00
2019-04-05T21:33:28.114Z,8.00
2019-04-05T21:35:55.516Z,8.00
2019-04-05T21:38:23.516Z,8.00
2019-04-05T21:41:06.755Z,8.00
2019-04-05T21:43:36.251Z,8.00
2019-04-05T21:46:03.825Z,8.00
2019-04-05T21:48:31.195Z,8.00
2019-04-05T21:50:58.655Z,8.00
2019-04-05T21:53:26.156Z,8.00
2019-04-05T21:55:53.625Z,8.00
2019-04-05T21:58:21.076Z,8.00
2019-04-05T22:00:56.706Z,8.00
2019-04-05T22:03:24.511Z,8.00
2019-04-05T22:05:52.143Z,7.90
2019-04-05T22:08:19.613Z,7.90
2019-04-05T22:10:47.096Z,7.90
2019-04-05T22:13:14.511Z,7.90
2019-04-05T22:15:42.963Z,7.90
2019-04-05T22:18:10.402Z,7.90
2019-04-05T22:20:37.686Z,7.90
2019-04-05T22:23:05.078Z,7.90
2019-04-05T22:25:32.463Z,7.90
2019-04-05T22:28:00.269Z,7.90
2019-04-05T22:30:27.717Z,7.90
2019-04-05T22:32:55.131Z,7.90
2019-04-05T22:35:22.514Z,7.80
2019-04-05T22:37:49.920Z,7.80
2019-04-05T22:40:17.352Z,7.80
2019-04-05T22:42:44.864Z,7.70
2019-04-05T22:45:12.358Z,7.70
2019-04-05T22:47:40.444Z,7.60
2019-04-05T22:50:08.907Z,7.50
2019-04-05T22:52:36.295Z,7.50
2019-04-05T22:55:11.149Z,7.40
2019-04-05T22:57:33.478Z,7.40
2019-04-05T23:00:00.903Z,7.30
2019-04-05T23:02:28.142Z,7.30
2019-04-05T23:04:55.630Z,7.20
2019-04-05T23:07:23.098Z,7.10
2019-04-05T23:09:50.526Z,7.10
2019-04-05T23:12:17.992Z,7.10
2019-04-05T23:14:45.557Z,7.00
2019-04-05T23:17:12.994Z,7.00
2019-04-05T23:19:40.278Z,6.90
2019-04-05T23:22:07.747Z,6.90
2019-04-05T23:24:35.260Z,6.80
2019-04-05T23:27:02.801Z,6.70
2019-04-05T23:29:30.212Z,6.60
2019-04-05T23:31:57.743Z,6.60
2019-04-05T23:34:25.239Z,6.50
2019-04-05T23:36:52.769Z,6.40
2019-04-05T23:39:20.181Z,6.40
2019-04-05T23:41:47.471Z,6.40
2019-04-05T23:44:14.803Z,6.30
2019-04-05T23:46:42.198Z,6.20
2019-04-05T23:49:09.722Z,6.20
2019-04-05T23:51:37.160Z,6.20
2019-04-05T23:54:04.447Z,6.10
2019-04-05T23:56:32.935Z,6.00
2019-04-05T23:59:00.292Z,5.90
